createdAt,value
2022-10-09T00:00:49.867Z,3.83
2022-10-09T00:03:18.316Z,2.93
2022-10-09T00:05:46.636Z,2.87
2022-10-09T00:08:14.668Z,2.50
2022-10-09T00:10:43.145Z,2.77
2022-10-09T00:13:11.209Z,3.50
2022-10-09T00:15:44.682Z,3.20
2022-10-09T00:18:13.463Z,3.40
2022-10-09T00:20:42.556Z,3.73
2022-10-09T00:23:10.750Z,3.30
2022-10-09T00:25:39.451Z,3.40
2022-10-09T00:28:07.536Z,3.73
2022-10-09T00:30:35.704Z,4.00
2022-10-09T00:33:18.769Z,3.17
2022-10-09T00:35:49.947Z,3.33
2022-10-09T00:38:18.102Z,3.40
2022-10-09T00:40:46.147Z,3.30
2022-10-09T00:43:16.360Z,3.43
2022-10-09T00:45:46.050Z,4.20
2022-10-09T00:48:15.511Z,3.33
2022-10-09T00:50:44.371Z,3.30
2022-10-09T00:53:19.337Z,3.30
2022-10-09T00:55:47.396Z,3.40
2022-10-09T00:58:15.445Z,3.67
2022-10-09T01:00:43.501Z,4.00
2022-10-09T01:03:11.568Z,3.37
2022-10-09T01:05:44.759Z,3.60
2022-10-09T01:08:15.661Z,3.33
2022-10-09T01:10:47.669Z,3.27
2022-10-09T01:13:18.218Z,3.53
2022-10-09T01:15:48.964Z,3.20
2022-10-09T01:18:21.659Z,3.13
2022-10-09T01:20:52.534Z,3.80
2022-10-09T01:23:34.988Z,3.13
2022-10-09T01:26:10.442Z,3.40
2022-10-09T01:28:40.113Z,3.00
2022-10-09T01:31:08.297Z,3.47
2022-10-09T01:33:36.375Z,3.10
2022-10-09T01:36:04.407Z,3.90
2022-10-09T01:38:32.527Z,3.33
2022-10-09T01:41:00.574Z,3.40
2022-10-09T01:43:28.625Z,4.03
2022-10-09T01:46:22.323Z,3.90
2022-10-09T01:48:54.623Z,3.80
2022-10-09T01:51:23.593Z,4.03
2022-10-09T01:53:51.668Z,3.90
2022-10-09T01:56:20.963Z,4.07
2022-10-09T01:59:06.344Z,4.07
2022-10-09T02:01:36.496Z,4.00
2022-10-09T02:04:06.007Z,4.30
2022-10-09T02:06:34.122Z,3.93
2022-10-09T02:09:02.253Z,4.40
2022-10-09T02:11:31.949Z,4.23
2022-10-09T02:13:59.990Z,4.60
2022-10-09T02:16:37.005Z,4.60
2022-10-09T02:19:09.759Z,4.50
2022-10-09T02:21:42.978Z,4.40
2022-10-09T02:24:15.267Z,4.33
2022-10-09T02:26:43.388Z,4.23
2022-10-09T02:29:11.704Z,4.70
2022-10-09T02:31:40.241Z,4.67
2022-10-09T02:34:11.741Z,4.83
2022-10-09T02:36:42.285Z,4.93
2022-10-09T02:39:10.452Z,5.20
2022-10-09T02:41:38.537Z,5.00
2022-10-09T02:44:06.711Z,4.47
2022-10-09T02:46:34.999Z,4.73
2022-10-09T02:49:03.280Z,4.87
2022-10-09T02:51:32.686Z,5.53
2022-10-09T02:54:00.783Z,5.10
2022-10-09T02:56:29.068Z,5.20
2022-10-09T02:58:57.141Z,4.87
2022-10-09T03:01:28.295Z,4.73
2022-10-09T03:03:56.434Z,4.57
2022-10-09T03:06:26.285Z,4.30
2022-10-09T03:08:55.969Z,4.43
2022-10-09T03:11:25.242Z,4.47
2022-10-09T03:14:02.004Z,5.50
2022-10-09T03:16:30.348Z,5.87
2022-10-09T03:19:00.159Z,4.50
2022-10-09T03:21:28.783Z,5.00
2022-10-09T03:23:58.209Z,4.47
2022-10-09T03:26:27.253Z,4.60
2022-10-09T03:28:55.781Z,4.70
2022-10-09T03:31:50.409Z,5.07
2022-10-09T03:34:12.981Z,5.60
2022-10-09T03:36:41.030Z,5.07
2022-10-09T03:39:10.733Z,4.97
2022-10-09T03:41:38.942Z,4.80
2022-10-09T03:44:07.160Z,5.10
2022-10-09T03:46:35.331Z,4.93
2022-10-09T03:49:03.502Z,4.27
2022-10-09T03:51:31.676Z,4.60
2022-10-09T03:53:59.700Z,4.30
2022-10-09T03:56:29.109Z,4.70
2022-10-09T03:58:57.234Z,4.50
2022-10-09T04:01:25.433Z,4.70
2022-10-09T04:03:53.613Z,4.37
2022-10-09T04:06:21.729Z,4.50
2022-10-09T04:08:49.859Z,4.03
2022-10-09T04:11:17.910Z,4.47
2022-10-09T04:13:47.357Z,4.43
2022-10-09T04:16:15.457Z,4.40
2022-10-09T04:18:44.033Z,3.70
2022-10-09T04:21:13.052Z,3.20
2022-10-09T04:23:41.142Z,4.20
2022-10-09T04:26:09.255Z,4.07
2022-10-09T04:28:37.437Z,3.77
2022-10-09T04:31:07.051Z,3.93
2022-10-09T04:33:35.205Z,3.40
2022-10-09T04:36:03.326Z,2.80
2022-10-09T04:38:32.521Z,3.30
2022-10-09T04:41:01.383Z,4.07
2022-10-09T04:43:29.601Z,2.83
2022-10-09T04:45:57.900Z,3.13
2022-10-09T04:48:27.371Z,2.93
2022-10-09T04:50:55.392Z,2.67
2022-10-09T04:53:23.430Z,2.67
2022-10-09T04:55:51.778Z,3.10
2022-10-09T04:58:19.839Z,2.60
2022-10-09T05:00:47.935Z,2.90
2022-10-09T05:03:16.037Z,2.70
2022-10-09T05:05:45.715Z,2.40
2022-10-09T05:08:13.770Z,2.70
2022-10-09T05:10:41.912Z,2.47
2022-10-09T05:13:10.039Z,3.00
2022-10-09T05:15:38.805Z,2.90
2022-10-09T05:18:07.020Z,2.30
2022-10-09T05:20:35.165Z,2.80
2022-10-09T05:23:04.556Z,2.50
2022-10-09T05:25:33.036Z,2.73
2022-10-09T05:28:01.133Z,2.47
2022-10-09T05:30:29.220Z,2.53
2022-10-09T05:33:00.368Z,2.40
2022-10-09T05:35:28.469Z,1.90
2022-10-09T05:37:56.512Z,2.00
2022-10-09T05:40:29.257Z,2.60
2022-10-09T05:42:57.482Z,2.50
2022-10-09T05:45:25.541Z,2.10
2022-10-09T05:47:53.597Z,2.33
2022-10-09T05:50:21.706Z,2.60
2022-10-09T05:52:50.110Z,2.27
2022-10-09T05:55:18.433Z,2.13
2022-10-09T05:57:47.932Z,2.50
2022-10-09T06:00:16.305Z,2.33
2022-10-09T06:02:44.475Z,2.50
2022-10-09T06:05:15.622Z,2.67
2022-10-09T06:07:43.708Z,2.40
2022-10-09T06:10:11.834Z,1.80
2022-10-09T06:12:39.869Z,1.93
2022-10-09T06:15:10.088Z,2.07
2022-10-09T06:17:38.139Z,1.87
2022-10-09T06:20:07.038Z,1.90
2022-10-09T06:22:35.035Z,2.30
2022-10-09T06:25:03.081Z,1.80
2022-10-09T06:27:31.169Z,2.00
2022-10-09T06:29:59.571Z,2.10
2022-10-09T06:32:29.015Z,1.60
2022-10-09T06:34:57.480Z,2.00
2022-10-09T06:37:25.621Z,1.60
2022-10-09T06:40:07.679Z,2.07
2022-10-09T06:42:35.775Z,2.20
2022-10-09T06:45:03.865Z,1.50
2022-10-09T06:47:33.288Z,2.00
2022-10-09T06:50:01.337Z,1.97
2022-10-09T06:52:29.377Z,1.83
2022-10-09T06:54:57.442Z,1.70
2022-10-09T06:57:25.508Z,1.70
2022-10-09T06:59:53.564Z,1.60
2022-10-09T07:02:21.694Z,1.80
2022-10-09T07:04:51.411Z,1.90
2022-10-09T07:07:19.525Z,1.60
2022-10-09T07:09:47.674Z,1.50
2022-10-09T07:12:15.734Z,1.40
2022-10-09T07:14:43.867Z,1.90
2022-10-09T07:17:11.893Z,1.33
2022-10-09T07:19:40.087Z,1.63
2022-10-09T07:22:11.574Z,1.23
2022-10-09T07:24:39.667Z,1.60
2022-10-09T07:27:07.882Z,1.70
2022-10-09T07:29:41.913Z,1.60
2022-10-09T07:32:10.702Z,1.53
2022-10-09T07:34:38.981Z,1.80
2022-10-09T07:37:07.042Z,1.23
2022-10-09T07:39:36.642Z,1.43
2022-10-09T07:42:05.061Z,1.77
2022-10-09T07:44:33.249Z,1.50
2022-10-09T07:47:01.350Z,1.30
2022-10-09T07:49:32.198Z,1.67
2022-10-09T07:52:00.293Z,1.60
2022-10-09T07:54:28.374Z,1.50
2022-10-09T07:56:57.945Z,1.50
2022-10-09T07:59:26.023Z,1.50
2022-10-09T08:01:54.237Z,1.33
2022-10-09T08:04:22.665Z,1.57
2022-10-09T08:06:50.778Z,1.03
2022-10-09T08:09:21.925Z,1.40
2022-10-09T08:11:49.967Z,1.53
2022-10-09T08:14:19.768Z,1.70
2022-10-09T08:16:48.180Z,1.27
2022-10-09T08:19:16.356Z,1.60
2022-10-09T08:21:44.430Z,1.77
2022-10-09T08:24:13.167Z,2.20
2022-10-09T08:26:41.299Z,5.90
2022-10-09T08:29:10.913Z,17.77
2022-10-09T08:31:40.434Z,13.10
2022-10-09T08:34:08.587Z,8.37
2022-10-09T08:36:36.652Z,13.93
2022-10-09T08:39:04.939Z,13.27
2022-10-09T08:41:48.389Z,24.80
2022-10-09T08:44:19.188Z,24.77
2022-10-09T08:47:06.824Z,26.50
2022-10-09T08:49:39.879Z,30.73
2022-10-09T08:52:16.404Z,30.37
2022-10-09T08:54:44.473Z,29.17
2022-10-09T08:57:13.990Z,29.30
2022-10-09T08:59:42.257Z,30.27
2022-10-09T09:05:21.254Z,28.20
2022-10-09T09:07:52.785Z,27.57
2022-10-09T09:10:23.321Z,29.10
2022-10-09T09:12:53.895Z,26.60
2022-10-09T09:15:31.290Z,24.00
2022-10-09T09:18:05.318Z,23.83
2022-10-09T09:20:36.988Z,23.87
2022-10-09T09:23:05.150Z,23.43
2022-10-09T09:25:35.010Z,22.20
2022-10-09T09:28:12.527Z,21.87
2022-10-09T09:30:43.959Z,20.60
2022-10-09T09:33:16.874Z,21.33
2022-10-09T09:35:48.212Z,20.70
2022-10-09T09:38:16.488Z,20.37
2022-10-09T09:40:47.214Z,20.40
2022-10-09T09:43:18.149Z,63.30
2022-10-09T09:45:46.526Z,49.70
2022-10-09T09:48:16.995Z,33.77
2022-10-09T09:50:52.938Z,27.77
2022-10-09T09:53:29.279Z,26.50
2022-10-09T09:55:57.432Z,24.70
2022-10-09T09:58:26.166Z,23.90
2022-10-09T10:00:57.428Z,23.10
2022-10-09T10:03:26.929Z,20.47
2022-10-09T10:05:55.173Z,19.30
2022-10-09T10:08:24.615Z,18.67
2022-10-09T10:10:53.993Z,19.63
2022-10-09T10:13:23.119Z,17.43
2022-10-09T10:15:53.324Z,17.57
2022-10-09T10:18:21.582Z,17.77
2022-10-09T10:20:51.953Z,16.77
2022-10-09T10:23:24.665Z,16.60
2022-10-09T10:25:53.256Z,16.47
2022-10-09T10:28:33.192Z,16.67
2022-10-09T10:31:01.276Z,15.63
2022-10-09T10:33:31.052Z,15.10
2022-10-09T10:36:28.831Z,15.90
2022-10-09T10:39:01.277Z,15.07
2022-10-09T10:41:30.415Z,15.43
2022-10-09T10:44:00.173Z,13.80
2022-10-09T10:46:30.686Z,15.33
2022-10-09T10:48:59.066Z,14.27
2022-10-09T10:51:37.125Z,14.63
2022-10-09T10:54:11.727Z,13.83
2022-10-09T10:56:41.427Z,14.17
2022-10-09T10:59:21.449Z,13.30
2022-10-09T11:01:53.710Z,14.00
2022-10-09T11:04:38.061Z,13.63
2022-10-09T11:07:10.651Z,13.47
2022-10-09T11:09:43.415Z,14.03
2022-10-09T11:12:19.838Z,13.93
2022-10-09T11:15:03.107Z,12.90
2022-10-09T11:17:32.960Z,12.80
2022-10-09T11:20:33.573Z,13.80
2022-10-09T11:23:06.718Z,12.90
2022-10-09T11:25:39.170Z,13.13
2022-10-09T11:28:10.690Z,12.87
2022-10-09T11:30:43.961Z,13.47
2022-10-09T11:33:18.091Z,13.07
2022-10-09T11:35:48.073Z,11.87
2022-10-09T11:38:24.595Z,12.03
2022-10-09T11:40:54.422Z,11.90
2022-10-09T11:43:41.496Z,12.63
2022-10-09T11:46:11.327Z,12.20
2022-10-09T11:48:43.664Z,12.23
2022-10-09T11:51:13.886Z,12.43
2022-10-09T11:53:41.936Z,11.70
2022-10-09T11:56:23.124Z,12.17
2022-10-09T11:58:58.640Z,11.80
2022-10-09T12:01:32.750Z,12.00
2022-10-09T12:04:02.077Z,12.33
2022-10-09T12:06:30.104Z,11.80
2022-10-09T12:08:58.999Z,13.03
2022-10-09T12:11:28.427Z,11.77
2022-10-09T12:13:57.162Z,11.73
2022-10-09T12:16:33.839Z,11.23
2022-10-09T12:19:02.868Z,11.03
2022-10-09T12:21:33.862Z,11.27
2022-10-09T12:24:01.920Z,11.00
2022-10-09T12:26:31.434Z,11.80
2022-10-09T12:29:01.229Z,12.00
2022-10-09T12:31:30.569Z,11.00
2022-10-09T12:34:00.473Z,10.57
2022-10-09T12:36:29.372Z,10.33
2022-10-09T12:39:14.061Z,10.10
2022-10-09T12:41:44.351Z,9.87
2022-10-09T12:44:19.082Z,10.97
2022-10-09T12:46:47.251Z,10.03
2022-10-09T12:49:20.547Z,10.00
2022-10-09T12:51:53.868Z,10.73
2022-10-09T12:54:25.145Z,9.30
2022-10-09T12:56:54.797Z,9.80
2022-10-09T12:59:22.851Z,10.20
2022-10-09T13:01:51.229Z,9.80
2022-10-09T13:04:26.502Z,9.43
2022-10-09T13:06:54.592Z,9.80
2022-10-09T13:09:24.183Z,9.10
2022-10-09T13:11:55.635Z,9.57
2022-10-09T13:14:25.942Z,9.17
2022-10-09T13:16:54.149Z,9.20
2022-10-09T13:19:24.927Z,9.80
2022-10-09T13:22:13.929Z,8.80
2022-10-09T13:24:41.973Z,8.93
2022-10-09T13:27:12.039Z,9.20
2022-10-09T13:29:40.201Z,8.40
2022-10-09T13:32:13.000Z,9.43
2022-10-09T13:34:41.086Z,8.60
2022-10-09T13:37:09.266Z,8.67
2022-10-09T13:39:37.380Z,8.67
2022-10-09T13:42:05.528Z,9.03
2022-10-09T13:44:34.948Z,8.77
2022-10-09T13:47:03.397Z,8.73
2022-10-09T13:49:31.483Z,8.70
2022-10-09T13:51:59.532Z,8.67
2022-10-09T13:54:39.389Z,7.50
2022-10-09T13:57:07.521Z,8.97
2022-10-09T13:59:38.411Z,8.63
2022-10-09T14:02:06.480Z,8.03
2022-10-09T14:04:34.551Z,8.97
2022-10-09T14:07:02.612Z,33.93
2022-10-09T14:09:31.252Z,22.30
2022-10-09T14:11:59.328Z,22.67
2022-10-09T14:14:27.422Z,18.37
2022-10-09T14:16:56.840Z,14.03
2022-10-09T14:19:27.695Z,10.53
2022-10-09T14:21:56.009Z,9.97
2022-10-09T14:24:24.065Z,9.67
2022-10-09T14:26:52.113Z,11.43
2022-10-09T14:29:28.975Z,10.70
2022-10-09T14:32:00.930Z,11.17
2022-10-09T14:34:28.981Z,11.30
2022-10-09T14:37:23.713Z,11.07
2022-10-09T14:39:58.191Z,11.53
2022-10-09T14:42:26.354Z,11.00
2022-10-09T14:44:54.712Z,11.47
2022-10-09T14:47:24.136Z,12.10
2022-10-09T14:49:52.324Z,11.80
2022-10-09T14:52:20.392Z,11.87
2022-10-09T14:54:48.442Z,11.60
2022-10-09T14:57:16.524Z,11.17
2022-10-09T14:59:44.586Z,12.40
2022-10-09T15:02:13.585Z,11.40
2022-10-09T15:04:43.047Z,12.03
2022-10-09T15:07:11.161Z,11.97
2022-10-09T15:09:39.369Z,11.53
2022-10-09T15:12:10.131Z,11.17
2022-10-09T15:14:38.232Z,12.10
2022-10-09T15:17:06.322Z,12.97
2022-10-09T15:19:34.563Z,14.13
2022-10-09T15:22:04.077Z,14.40
2022-10-09T15:24:32.144Z,14.97
2022-10-09T15:27:04.609Z,15.17
2022-10-09T15:29:32.677Z,15.47
2022-10-09T15:32:02.087Z,15.53
2022-10-09T15:34:30.865Z,14.00
2022-10-09T15:36:58.971Z,14.63
2022-10-09T15:39:28.501Z,14.03
2022-10-09T15:41:56.572Z,13.30
2022-10-09T15:44:24.605Z,14.43
2022-10-09T15:46:55.945Z,13.80
2022-10-09T15:49:24.022Z,12.87
2022-10-09T15:51:52.161Z,13.00
2022-10-09T15:54:28.974Z,12.83
2022-10-09T15:56:58.374Z,13.30
2022-10-09T15:59:26.634Z,13.30
2022-10-09T16:01:54.776Z,13.40
2022-10-09T16:04:22.833Z,13.50
2022-10-09T16:06:50.879Z,13.20
2022-10-09T16:09:18.950Z,12.40
2022-10-09T16:11:46.996Z,13.43
2022-10-09T16:14:16.404Z,13.60
2022-10-09T16:16:44.773Z,12.87
2022-10-09T16:19:12.848Z,12.03
2022-10-09T16:21:40.879Z,12.43
2022-10-09T16:24:09.322Z,12.67
2022-10-09T16:26:37.364Z,12.60
2022-10-09T16:29:05.492Z,11.83
2022-10-09T16:31:36.043Z,11.93
2022-10-09T16:34:04.141Z,12.60
2022-10-09T16:36:35.065Z,11.30
2022-10-09T16:39:03.227Z,11.37
2022-10-09T16:41:31.337Z,12.00
2022-10-09T16:44:00.339Z,11.33
2022-10-09T16:46:29.324Z,11.63
2022-10-09T16:48:59.017Z,11.00
2022-10-09T16:51:27.842Z,10.90
2022-10-09T16:53:59.991Z,11.90
2022-10-09T16:56:29.662Z,11.10
2022-10-09T16:58:58.477Z,11.13
2022-10-09T17:01:26.759Z,9.93
2022-10-09T17:03:55.181Z,10.53
2022-10-09T17:06:24.628Z,10.40
2022-10-09T17:08:52.719Z,10.53
2022-10-09T17:11:20.831Z,10.50
2022-10-09T17:13:48.909Z,9.57
2022-10-09T17:16:18.630Z,9.37
2022-10-09T17:18:46.978Z,9.77
2022-10-09T17:21:15.390Z,9.70
2022-10-09T17:23:44.905Z,9.17
2022-10-09T17:26:13.641Z,9.73
2022-10-09T17:28:42.377Z,9.60
2022-10-09T17:31:11.492Z,9.50
2022-10-09T17:33:42.040Z,8.80
2022-10-09T17:36:10.137Z,9.13
2022-10-09T17:38:38.254Z,8.97
2022-10-09T17:41:08.023Z,8.80
2022-10-09T17:43:36.076Z,8.73
2022-10-09T17:46:12.955Z,8.30
2022-10-09T17:48:44.587Z,8.77
2022-10-09T17:51:15.655Z,8.87
2022-10-09T17:53:43.718Z,8.27
2022-10-09T17:56:13.157Z,8.20
2022-10-09T17:58:41.295Z,8.23
2022-10-09T18:01:09.734Z,7.80
2022-10-09T18:03:38.291Z,8.33
2022-10-09T18:06:14.219Z,8.70
2022-10-09T18:08:42.340Z,8.40
2022-10-09T18:11:13.139Z,8.00
2022-10-09T18:13:41.478Z,8.00
2022-10-09T18:16:10.596Z,8.07
2022-10-09T18:18:39.179Z,7.40
2022-10-09T18:21:08.337Z,7.43
2022-10-09T18:23:39.201Z,7.30
2022-10-09T18:26:10.590Z,7.43
2022-10-09T18:28:41.766Z,7.70
2022-10-09T18:31:12.683Z,7.90
2022-10-09T18:33:40.774Z,7.23
2022-10-09T18:36:09.864Z,7.80
2022-10-09T18:38:38.072Z,7.70
2022-10-09T18:41:09.728Z,7.03
2022-10-09T18:43:39.213Z,7.13
2022-10-09T18:46:07.285Z,7.13
2022-10-09T18:48:36.504Z,6.40
2022-10-09T18:51:04.932Z,6.70
2022-10-09T18:53:32.973Z,7.20
2022-10-09T18:56:01.202Z,6.70
2022-10-09T18:58:29.219Z,6.57
2022-10-09T19:00:58.800Z,6.87
2022-10-09T19:03:26.943Z,7.40
2022-10-09T19:05:55.005Z,6.97
2022-10-09T19:08:23.120Z,6.50
2022-10-09T19:10:51.972Z,6.53
2022-10-09T19:13:20.387Z,7.07
2022-10-09T19:15:52.601Z,7.17
2022-10-09T19:18:24.421Z,6.77
2022-10-09T19:20:52.503Z,6.10
2022-10-09T19:23:20.549Z,5.80
2022-10-09T19:25:49.420Z,5.60
2022-10-09T19:28:17.604Z,6.40
2022-10-09T19:30:45.992Z,5.80
2022-10-09T19:33:14.101Z,6.60
2022-10-09T19:35:50.560Z,6.20
2022-10-09T19:38:19.216Z,5.50
2022-10-09T19:40:47.256Z,5.47
2022-10-09T19:43:15.492Z,5.67
2022-10-09T19:45:43.655Z,5.17
2022-10-09T19:48:11.898Z,5.87
2022-10-09T19:50:41.914Z,5.77
2022-10-09T19:53:11.478Z,5.10
2022-10-09T19:55:39.679Z,5.70
2022-10-09T19:58:09.912Z,5.57
2022-10-09T20:00:42.201Z,5.23
2022-10-09T20:03:10.410Z,5.30
2022-10-09T20:05:38.505Z,5.23
2022-10-09T20:08:06.621Z,5.00
2022-10-09T20:10:37.637Z,5.67
2022-10-09T20:13:05.800Z,5.20
2022-10-09T20:15:36.956Z,4.70
2022-10-09T20:18:05.102Z,5.67
2022-10-09T20:20:33.165Z,5.10
2022-10-09T20:23:01.253Z,5.20
2022-10-09T20:25:29.375Z,4.43
2022-10-09T20:27:58.777Z,5.07
2022-10-09T20:30:26.965Z,4.53
2022-10-09T20:33:03.693Z,4.53
2022-10-09T20:35:31.801Z,4.80
2022-10-09T20:38:00.234Z,5.03
2022-10-09T20:40:28.295Z,4.60
2022-10-09T20:42:56.397Z,4.20
2022-10-09T20:45:25.872Z,4.70
2022-10-09T20:47:53.902Z,4.80
2022-10-09T20:50:22.102Z,4.97
2022-10-09T20:52:50.582Z,4.87
2022-10-09T20:55:18.973Z,4.83
2022-10-09T20:57:47.857Z,4.47
2022-10-09T21:00:17.993Z,4.50
2022-10-09T21:02:47.730Z,4.60
2022-10-09T21:05:16.080Z,4.53
2022-10-09T21:07:47.313Z,4.90
2022-10-09T21:10:15.417Z,4.50
2022-10-09T21:12:43.595Z,4.03
2022-10-09T21:15:12.164Z,4.47
2022-10-09T21:17:40.188Z,3.87
2022-10-09T21:20:10.484Z,4.10
2022-10-09T21:22:38.580Z,4.30
2022-10-09T21:25:10.855Z,4.10
2022-10-09T21:27:52.806Z,3.80
2022-10-09T21:30:24.007Z,4.00
2022-10-09T21:32:54.859Z,4.50
2022-10-09T21:35:24.641Z,3.77
2022-10-09T21:37:52.669Z,3.83
2022-10-09T21:40:20.994Z,3.80
2022-10-09T21:42:49.420Z,3.80
2022-10-09T21:45:18.137Z,3.60
2022-10-09T21:47:46.290Z,3.50
2022-10-09T21:50:14.433Z,3.17
2022-10-09T21:52:43.950Z,3.97
2022-10-09T21:55:12.105Z,4.00
2022-10-09T21:57:40.209Z,3.53
2022-10-09T22:00:09.522Z,3.30
2022-10-09T22:02:37.570Z,3.47
2022-10-09T22:05:06.399Z,3.40
2022-10-09T22:07:34.474Z,3.60
2022-10-09T22:10:03.979Z,3.53
2022-10-09T22:12:32.089Z,3.47
2022-10-09T22:15:00.222Z,3.00
2022-10-09T22:17:28.325Z,3.77
2022-10-09T22:19:56.454Z,3.50
2022-10-09T22:22:24.781Z,3.00
2022-10-09T22:24:52.973Z,3.10
2022-10-09T22:27:22.434Z,3.63
2022-10-09T22:29:53.626Z,3.20
2022-10-09T22:32:21.696Z,3.67
2022-10-09T22:34:51.437Z,3.80
2022-10-09T22:37:19.488Z,3.60
2022-10-09T22:39:47.791Z,3.10
2022-10-09T22:42:15.872Z,3.13
2022-10-09T22:44:45.335Z,3.17
2022-10-09T22:47:19.311Z,3.23
2022-10-09T22:49:47.595Z,3.20
2022-10-09T22:52:15.663Z,3.00
2022-10-09T22:54:43.895Z,2.83
2022-10-09T22:57:11.934Z,3.30
2022-10-09T22:59:40.062Z,2.97
2022-10-09T23:02:09.456Z,3.40
2022-10-09T23:04:37.643Z,3.00
2022-10-09T23:07:05.951Z,3.10
2022-10-09T23:09:34.109Z,3.10
2022-10-09T23:12:02.186Z,3.13
2022-10-09T23:14:30.348Z,3.00
2022-10-09T23:16:58.462Z,3.03
2022-10-09T23:19:27.946Z,2.80
2022-10-09T23:22:02.249Z,3.07
2022-10-09T23:24:30.340Z,2.93
2022-10-09T23:26:58.392Z,2.90
2022-10-09T23:29:26.475Z,2.97
2022-10-09T23:31:54.575Z,2.77
2022-10-09T23:34:22.618Z,3.17
2022-10-09T23:36:52.075Z,3.00
2022-10-09T23:39:20.100Z,2.90
2022-10-09T23:41:48.145Z,2.90
2022-10-09T23:44:21.264Z,2.80
2022-10-09T23:46:50.189Z,2.50
2022-10-09T23:49:18.295Z,3.20
2022-10-09T23:51:46.434Z,2.70
2022-10-09T23:54:15.945Z,2.87
2022-10-09T23:56:44.047Z,2.40
2022-10-09T23:59:12.449Z,3.30
